sensor_id;sensor_type;location;lat;lon;timestamp;pressure;altitude;pressure_sealevel;temperature;humidity
24762;BME280;12865;51.934;10.330;2022-07-10T00:00:44;99897.44;;;14.80;79.49
24762;BME280;12865;51.934;10.330;2022-07-10T00:03:30;99895.75;;;14.52;80.16
24762;BME280;12865;51.934;10.330;2022-07-10T00:06:16;99898.38;;;14.71;80.00
24762;BME280;12865;51.934;10.330;2022-07-10T00:09:02;99895.56;;;14.90;79.04
24762;BME280;12865;51.934;10.330;2022-07-10T00:11:48;99894.38;;;14.75;79.85
24762;BME280;12865;51.934;10.330;2022-07-10T00:14:33;99890.81;;;14.57;80.27
24762;BME280;12865;51.934;10.330;2022-07-10T00:17:19;99894.75;;;14.53;80.96
24762;BME280;12865;51.934;10.330;2022-07-10T00:20:06;99893.88;;;14.62;80.55
24762;BME280;12865;51.934;10.330;2022-07-10T00:22:52;99894.25;;;14.40;82.27
24762;BME280;12865;51.934;10.330;2022-07-10T00:25:37;99896.22;;;14.38;82.49
24762;BME280;12865;51.934;10.330;2022-07-10T00:28:23;99893.13;;;14.42;82.21
24762;BME280;12865;51.934;10.330;2022-07-10T00:31:10;99891.00;;;14.36;82.38
24762;BME280;12865;51.934;10.330;2022-07-10T00:33:56;99887.50;;;14.26;82.72
24762;BME280;12865;51.934;10.330;2022-07-10T00:36:42;99887.63;;;14.34;82.50
24762;BME280;12865;51.934;10.330;2022-07-10T00:39:28;99882.53;;;14.31;81.95
24762;BME280;12865;51.934;10.330;2022-07-10T00:42:15;99886.47;;;14.37;81.84
24762;BME280;12865;51.934;10.330;2022-07-10T00:45:01;99891.03;;;14.27;82.02
24762;BME280;12865;51.934;10.330;2022-07-10T00:47:47;99888.75;;;14.41;81.59
24762;BME280;12865;51.934;10.330;2022-07-10T00:50:33;99891.16;;;14.35;82.06
24762;BME280;12865;51.934;10.330;2022-07-10T00:53:19;99885.56;;;14.19;82.02
24762;BME280;12865;51.934;10.330;2022-07-10T00:56:05;99879.00;;;14.31;82.08
24762;BME280;12865;51.934;10.330;2022-07-10T00:58:52;99883.28;;;14.24;81.99
24762;BME280;12865;51.934;10.330;2022-07-10T01:01:38;99882.47;;;14.13;82.31
24762;BME280;12865;51.934;10.330;2022-07-10T01:04:24;99885.03;;;14.15;83.08
24762;BME280;12865;51.934;10.330;2022-07-10T01:07:10;99880.75;;;14.22;82.54
24762;BME280;12865;51.934;10.330;2022-07-10T01:09:56;99876.59;;;14.00;83.20
24762;BME280;12865;51.934;10.330;2022-07-10T01:12:42;99870.66;;;14.06;82.88
24762;BME280;12865;51.934;10.330;2022-07-10T01:15:28;99871.16;;;14.20;82.31
24762;BME280;12865;51.934;10.330;2022-07-10T01:18:14;99869.19;;;14.22;82.08
24762;BME280;12865;51.934;10.330;2022-07-10T01:21:00;99868.03;;;14.24;81.51
24762;BME280;12865;51.934;10.330;2022-07-10T01:23:45;99864.25;;;14.17;81.45
24762;BME280;12865;51.934;10.330;2022-07-10T01:26:31;99863.13;;;14.10;82.56
24762;BME280;12865;51.934;10.330;2022-07-10T01:29:17;99846.91;;;14.11;82.31
24762;BME280;12865;51.934;10.330;2022-07-10T01:32:03;99853.41;;;14.09;82.31
24762;BME280;12865;51.934;10.330;2022-07-10T01:34:48;99858.94;;;14.07;82.33
24762;BME280;12865;51.934;10.330;2022-07-10T01:37:34;99847.47;;;14.15;81.56
24762;BME280;12865;51.934;10.330;2022-07-10T01:40:20;99853.97;;;14.12;81.90
24762;BME280;12865;51.934;10.330;2022-07-10T01:43:06;99849.63;;;14.02;82.07
24762;BME280;12865;51.934;10.330;2022-07-10T01:45:51;99847.41;;;13.88;82.65
24762;BME280;12865;51.934;10.330;2022-07-10T01:48:38;99844.72;;;13.88;82.42
24762;BME280;12865;51.934;10.330;2022-07-10T01:51:24;99841.06;;;13.89;82.75
24762;BME280;12865;51.934;10.330;2022-07-10T01:54:10;99850.97;;;13.79;83.66
24762;BME280;12865;51.934;10.330;2022-07-10T01:56:55;99857.63;;;13.65;85.25
24762;BME280;12865;51.934;10.330;2022-07-10T01:59:41;99846.47;;;13.79;84.31
24762;BME280;12865;51.934;10.330;2022-07-10T02:02:27;99848.47;;;13.58;86.18
24762;BME280;12865;51.934;10.330;2022-07-10T02:05:13;99837.63;;;13.59;85.62
24762;BME280;12865;51.934;10.330;2022-07-10T02:07:58;99837.31;;;13.62;84.25
24762;BME280;12865;51.934;10.330;2022-07-10T02:10:45;99837.72;;;13.67;83.46
24762;BME280;12865;51.934;10.330;2022-07-10T02:13:30;99842.84;;;13.51;84.51
24762;BME280;12865;51.934;10.330;2022-07-10T02:16:17;99834.09;;;13.49;85.24
24762;BME280;12865;51.934;10.330;2022-07-10T02:19:03;99829.84;;;13.47;85.83
24762;BME280;12865;51.934;10.330;2022-07-10T02:21:49;99833.25;;;13.49;86.36
24762;BME280;12865;51.934;10.330;2022-07-10T02:24:35;99822.97;;;13.44;86.25
24762;BME280;12865;51.934;10.330;2022-07-10T02:27:21;99823.66;;;13.46;86.07
24762;BME280;12865;51.934;10.330;2022-07-10T02:30:08;99827.31;;;13.55;85.50
24762;BME280;12865;51.934;10.330;2022-07-10T02:32:54;99822.66;;;13.47;86.05
24762;BME280;12865;51.934;10.330;2022-07-10T02:35:39;99818.56;;;13.53;85.95
24762;BME280;12865;51.934;10.330;2022-07-10T02:38:25;99813.72;;;13.75;84.71
24762;BME280;12865;51.934;10.330;2022-07-10T02:41:11;99807.31;;;13.59;84.68
24762;BME280;12865;51.934;10.330;2022-07-10T02:43:57;99809.28;;;13.57;85.51
24762;BME280;12865;51.934;10.330;2022-07-10T02:49:10;99812.94;;;13.46;85.38
24762;BME280;12865;51.934;10.330;2022-07-10T02:51:56;99818.03;;;13.40;85.72
24762;BME280;12865;51.934;10.330;2022-07-10T02:54:42;99816.31;;;13.58;84.93
24762;BME280;12865;51.934;10.330;2022-07-10T02:57:27;99811.81;;;13.58;84.88
24762;BME280;12865;51.934;10.330;2022-07-10T03:00:13;99810.13;;;13.48;85.39
24762;BME280;12865;51.934;10.330;2022-07-10T03:02:59;99816.19;;;13.40;85.51
24762;BME280;12865;51.934;10.330;2022-07-10T03:05:45;99805.16;;;13.53;84.84
24762;BME280;12865;51.934;10.330;2022-07-10T03:08:31;99812.97;;;13.36;86.05
24762;BME280;12865;51.934;10.330;2022-07-10T03:11:16;99816.91;;;13.42;86.02
24762;BME280;12865;51.934;10.330;2022-07-10T03:14:02;99810.97;;;13.48;86.24
24762;BME280;12865;51.934;10.330;2022-07-10T03:16:48;99802.50;;;13.53;86.08
24762;BME280;12865;51.934;10.330;2022-07-10T03:19:33;99801.28;;;13.38;87.14
24762;BME280;12865;51.934;10.330;2022-07-10T03:22:19;99795.06;;;13.37;88.02
24762;BME280;12865;51.934;10.330;2022-07-10T03:25:05;99796.19;;;13.34;88.69
24762;BME280;12865;51.934;10.330;2022-07-10T03:27:51;99789.72;;;13.27;89.56
24762;BME280;12865;51.934;10.330;2022-07-10T03:30:37;99794.25;;;13.17;90.87
24762;BME280;12865;51.934;10.330;2022-07-10T03:33:23;99797.03;;;13.25;90.77
24762;BME280;12865;51.934;10.330;2022-07-10T03:36:08;99790.44;;;13.29;90.38
24762;BME280;12865;51.934;10.330;2022-07-10T03:38:54;99790.03;;;13.24;90.43
24762;BME280;12865;51.934;10.330;2022-07-10T03:41:40;99790.69;;;13.26;90.57
24762;BME280;12865;51.934;10.330;2022-07-10T03:44:25;99792.13;;;13.21;91.19
24762;BME280;12865;51.934;10.330;2022-07-10T03:47:11;99793.25;;;13.28;91.09
24762;BME280;12865;51.934;10.330;2022-07-10T03:49:57;99794.34;;;13.25;91.82
24762;BME280;12865;51.934;10.330;2022-07-10T03:52:43;99790.13;;;13.42;91.08
24762;BME280;12865;51.934;10.330;2022-07-10T03:55:30;99790.97;;;13.43;90.83
24762;BME280;12865;51.934;10.330;2022-07-10T03:58:15;99807.59;;;13.46;91.13
24762;BME280;12865;51.934;10.330;2022-07-10T04:01:01;99802.97;;;13.19;92.66
24762;BME280;12865;51.934;10.330;2022-07-10T04:03:47;99805.22;;;13.14;93.80
24762;BME280;12865;51.934;10.330;2022-07-10T04:06:33;99806.50;;;13.29;93.23
24762;BME280;12865;51.934;10.330;2022-07-10T04:09:18;99806.19;;;13.32;93.09
24762;BME280;12865;51.934;10.330;2022-07-10T04:12:04;99815.22;;;13.41;93.00
24762;BME280;12865;51.934;10.330;2022-07-10T04:14:50;99803.38;;;13.44;93.77
24762;BME280;12865;51.934;10.330;2022-07-10T04:17:37;99800.00;;;13.42;95.14
24762;BME280;12865;51.934;10.330;2022-07-10T04:20:22;99798.19;;;13.23;97.94
24762;BME280;12865;51.934;10.330;2022-07-10T04:23:09;99802.53;;;13.33;97.84
24762;BME280;12865;51.934;10.330;2022-07-10T04:25:56;99801.69;;;13.33;97.92
24762;BME280;12865;51.934;10.330;2022-07-10T04:28:42;99797.88;;;13.45;97.20
24762;BME280;12865;51.934;10.330;2022-07-10T04:31:27;99797.75;;;13.27;97.73
24762;BME280;12865;51.934;10.330;2022-07-10T04:34:13;99793.50;;;13.25;98.43
24762;BME280;12865;51.934;10.330;2022-07-10T04:36:59;99787.75;;;13.29;98.31
24762;BME280;12865;51.934;10.330;2022-07-10T04:39:45;99800.03;;;13.22;98.85
24762;BME280;12865;51.934;10.330;2022-07-10T04:42:31;99804.09;;;13.26;98.90
24762;BME280;12865;51.934;10.330;2022-07-10T04:45:16;99809.31;;;13.38;99.28
24762;BME280;12865;51.934;10.330;2022-07-10T04:48:03;99798.31;;;13.31;99.37
24762;BME280;12865;51.934;10.330;2022-07-10T04:50:49;99797.19;;;13.33;100.00
24762;BME280;12865;51.934;10.330;2022-07-10T04:53:35;99794.53;;;13.24;99.61
24762;BME280;12865;51.934;10.330;2022-07-10T04:56:21;99811.84;;;13.29;99.91
24762;BME280;12865;51.934;10.330;2022-07-10T04:59:06;99811.56;;;13.23;100.00
24762;BME280;12865;51.934;10.330;2022-07-10T05:01:53;99816.34;;;13.19;100.00
24762;BME280;12865;51.934;10.330;2022-07-10T05:04:38;99815.78;;;13.06;100.00
24762;BME280;12865;51.934;10.330;2022-07-10T05:07:24;99821.94;;;12.78;100.00
24762;BME280;12865;51.934;10.330;2022-07-10T05:10:10;99814.09;;;12.95;100.00
24762;BME280;12865;51.934;10.330;2022-07-10T05:12:55;99815.34;;;13.11;100.00
24762;BME280;12865;51.934;10.330;2022-07-10T05:15:41;99815.50;;;13.09;100.00
24762;BME280;12865;51.934;10.330;2022-07-10T05:18:27;99813.09;;;13.06;100.00
24762;BME280;12865;51.934;10.330;2022-07-10T05:21:12;99811.13;;;13.08;100.00
24762;BME280;12865;51.934;10.330;2022-07-10T05:23:59;99808.03;;;13.32;100.00
24762;BME280;12865;51.934;10.330;2022-07-10T05:26:44;99803.69;;;13.21;100.00
24762;BME280;12865;51.934;10.330;2022-07-10T05:29:30;99799.75;;;13.16;100.00
24762;BME280;12865;51.934;10.330;2022-07-10T05:32:16;99795.78;;;13.29;100.00
24762;BME280;12865;51.934;10.330;2022-07-10T05:35:01;99800.56;;;13.35;100.00
24762;BME280;12865;51.934;10.330;2022-07-10T05:37:47;99794.81;;;13.30;100.00
24762;BME280;12865;51.934;10.330;2022-07-10T05:40:33;99799.59;;;13.36;100.00
24762;BME280;12865;51.934;10.330;2022-07-10T05:43:19;99801.97;;;13.40;100.00
24762;BME280;12865;51.934;10.330;2022-07-10T05:46:05;99797.44;;;13.40;100.00
24762;BME280;12865;51.934;10.330;2022-07-10T05:48:51;99792.66;;;13.44;100.00
24762;BME280;12865;51.934;10.330;2022-07-10T05:51:37;99794.63;;;13.51;100.00
24762;BME280;12865;51.934;10.330;2022-07-10T05:54:23;99794.00;;;13.67;100.00
24762;BME280;12865;51.934;10.330;2022-07-10T05:57:09;99786.28;;;13.54;100.00
24762;BME280;12865;51.934;10.330;2022-07-10T05:59:54;99799.53;;;13.56;100.00
24762;BME280;12865;51.934;10.330;2022-07-10T06:02:41;99806.00;;;13.72;100.00
24762;BME280;12865;51.934;10.330;2022-07-10T06:05:26;99816.31;;;13.58;100.00
24762;BME280;12865;51.934;10.330;2022-07-10T06:08:12;99812.47;;;13.70;100.00
24762;BME280;12865;51.934;10.330;2022-07-10T06:10:58;99822.47;;;13.68;100.00
24762;BME280;12865;51.934;10.330;2022-07-10T06:13:43;99815.72;;;13.73;100.00
24762;BME280;12865;51.934;10.330;2022-07-10T06:16:29;99828.38;;;13.81;99.70
24762;BME280;12865;51.934;10.330;2022-07-10T06:19:15;99820.25;;;13.73;99.63
24762;BME280;12865;51.934;10.330;2022-07-10T06:22:02;99826.84;;;13.79;99.46
24762;BME280;12865;51.934;10.330;2022-07-10T06:25:08;99822.16;;;13.90;99.10
24762;BME280;12865;51.934;10.330;2022-07-10T06:27:54;99834.16;;;13.86;97.86
24762;BME280;12865;51.934;10.330;2022-07-10T06:30:39;99833.84;;;13.89;97.18
24762;BME280;12865;51.934;10.330;2022-07-10T06:33:25;99832.53;;;14.03;97.21
24762;BME280;12865;51.934;10.330;2022-07-10T06:36:11;99822.97;;;14.00;95.66
24762;BME280;12865;51.934;10.330;2022-07-10T06:38:57;99829.44;;;14.07;94.98
24762;BME280;12865;51.934;10.330;2022-07-10T06:41:43;99834.94;;;14.06;94.54
24762;BME280;12865;51.934;10.330;2022-07-10T06:44:29;99818.19;;;13.94;94.79
24762;BME280;12865;51.934;10.330;2022-07-10T06:47:17;99832.22;;;14.15;93.79
24762;BME280;12865;51.934;10.330;2022-07-10T06:50:22;99828.53;;;14.16;92.18
24762;BME280;12865;51.934;10.330;2022-07-10T06:53:08;99821.13;;;14.38;89.88
24762;BME280;12865;51.934;10.330;2022-07-10T06:55:54;99821.97;;;14.38;90.46
24762;BME280;12865;51.934;10.330;2022-07-10T06:58:40;99828.56;;;14.44;90.48
24762;BME280;12865;51.934;10.330;2022-07-10T07:01:26;99825.59;;;14.37;89.71
24762;BME280;12865;51.934;10.330;2022-07-10T07:04:11;99824.50;;;14.40;89.30
24762;BME280;12865;51.934;10.330;2022-07-10T07:06:57;99831.31;;;14.25;88.35
24762;BME280;12865;51.934;10.330;2022-07-10T07:09:43;99826.78;;;14.35;87.51
24762;BME280;12865;51.934;10.330;2022-07-10T07:12:29;99827.16;;;14.49;86.87
24762;BME280;12865;51.934;10.330;2022-07-10T07:15:15;99814.59;;;14.50;86.85
24762;BME280;12865;51.934;10.330;2022-07-10T07:18:02;99834.13;;;14.60;87.14
24762;BME280;12865;51.934;10.330;2022-07-10T07:20:53;99830.31;;;14.63;86.49
24762;BME280;12865;51.934;10.330;2022-07-10T07:23:57;99827.41;;;14.74;86.20
24762;BME280;12865;51.934;10.330;2022-07-10T07:26:43;99828.63;;;14.79;84.79
24762;BME280;12865;51.934;10.330;2022-07-10T07:29:29;99817.97;;;14.87;85.10
24762;BME280;12865;51.934;10.330;2022-07-10T07:32:14;99831.97;;;15.09;85.44
24762;BME280;12865;51.934;10.330;2022-07-10T07:35:01;99819.38;;;15.27;82.64
24762;BME280;12865;51.934;10.330;2022-07-10T07:37:49;99825.59;;;15.27;80.99
24762;BME280;12865;51.934;10.330;2022-07-10T07:40:35;99822.72;;;15.29;81.97
24762;BME280;12865;51.934;10.330;2022-07-10T07:43:22;99823.97;;;15.17;81.84
24762;BME280;12865;51.934;10.330;2022-07-10T07:46:08;99824.53;;;15.20;81.33
24762;BME280;12865;51.934;10.330;2022-07-10T07:48:55;99823.38;;;15.05;80.54
24762;BME280;12865;51.934;10.330;2022-07-10T07:51:40;99827.50;;;15.17;80.16
24762;BME280;12865;51.934;10.330;2022-07-10T07:54:26;99825.19;;;15.40;79.45
24762;BME280;12865;51.934;10.330;2022-07-10T07:57:12;99829.41;;;15.43;79.11
24762;BME280;12865;51.934;10.330;2022-07-10T07:59:58;99824.25;;;15.49;78.90
24762;BME280;12865;51.934;10.330;2022-07-10T08:02:43;99818.56;;;15.52;79.59
24762;BME280;12865;51.934;10.330;2022-07-10T08:05:29;99824.66;;;15.54;79.23
24762;BME280;12865;51.934;10.330;2022-07-10T08:08:15;99826.38;;;15.55;78.39
24762;BME280;12865;51.934;10.330;2022-07-10T08:11:01;99821.19;;;15.88;77.97
24762;BME280;12865;51.934;10.330;2022-07-10T08:13:47;99825.03;;;15.85;74.16
24762;BME280;12865;51.934;10.330;2022-07-10T08:16:32;99815.06;;;15.78;72.35
24762;BME280;12865;51.934;10.330;2022-07-10T08:19:18;99817.75;;;15.78;73.16
24762;BME280;12865;51.934;10.330;2022-07-10T08:22:04;99811.44;;;15.87;74.21
24762;BME280;12865;51.934;10.330;2022-07-10T08:24:49;99801.03;;;15.92;75.59
24762;BME280;12865;51.934;10.330;2022-07-10T08:27:36;99809.84;;;16.02;73.97
24762;BME280;12865;51.934;10.330;2022-07-10T08:30:22;99805.28;;;16.36;71.38
24762;BME280;12865;51.934;10.330;2022-07-10T08:33:08;99801.88;;;16.26;72.72
24762;BME280;12865;51.934;10.330;2022-07-10T08:35:54;99809.09;;;15.92;71.92
24762;BME280;12865;51.934;10.330;2022-07-10T08:38:45;99805.94;;;15.70;71.88
24762;BME280;12865;51.934;10.330;2022-07-10T08:41:31;99810.69;;;16.02;71.24
24762;BME280;12865;51.934;10.330;2022-07-10T08:44:20;99812.88;;;16.07;70.69
24762;BME280;12865;51.934;10.330;2022-07-10T08:49:34;99807.56;;;16.15;71.94
24762;BME280;12865;51.934;10.330;2022-07-10T08:52:33;99813.88;;;16.06;72.72
24762;BME280;12865;51.934;10.330;2022-07-10T08:55:19;99820.56;;;15.94;73.01
24762;BME280;12865;51.934;10.330;2022-07-10T08:58:12;99816.75;;;16.38;72.01
24762;BME280;12865;51.934;10.330;2022-07-10T09:00:58;99800.91;;;16.77;71.07
24762;BME280;12865;51.934;10.330;2022-07-10T09:03:44;99799.09;;;17.02;68.88
24762;BME280;12865;51.934;10.330;2022-07-10T09:06:30;99806.34;;;17.42;64.14
24762;BME280;12865;51.934;10.330;2022-07-10T09:09:16;99794.03;;;17.32;65.94
24762;BME280;12865;51.934;10.330;2022-07-10T09:12:02;99790.31;;;17.81;64.25
24762;BME280;12865;51.934;10.330;2022-07-10T09:14:48;99794.38;;;17.77;63.21
24762;BME280;12865;51.934;10.330;2022-07-10T09:17:53;99800.97;;;17.50;63.64
24762;BME280;12865;51.934;10.330;2022-07-10T09:20:39;99796.06;;;17.21;64.11
24762;BME280;12865;51.934;10.330;2022-07-10T09:23:29;99794.03;;;17.32;65.06
24762;BME280;12865;51.934;10.330;2022-07-10T09:26:15;99793.19;;;17.80;64.28
24762;BME280;12865;51.934;10.330;2022-07-10T09:29:10;99795.00;;;17.87;62.11
24762;BME280;12865;51.934;10.330;2022-07-10T09:31:58;99800.44;;;17.55;61.91
24762;BME280;12865;51.934;10.330;2022-07-10T09:34:52;99791.88;;;17.43;62.32
24762;BME280;12865;51.934;10.330;2022-07-10T09:37:57;99795.91;;;17.72;61.84
24762;BME280;12865;51.934;10.330;2022-07-10T09:40:43;99775.66;;;17.59;61.10
24762;BME280;12865;51.934;10.330;2022-07-10T09:43:45;99794.38;;;17.61;61.11
24762;BME280;12865;51.934;10.330;2022-07-10T09:46:35;99780.91;;;17.69;58.94
24762;BME280;12865;51.934;10.330;2022-07-10T09:49:28;99783.03;;;17.90;59.35
24762;BME280;12865;51.934;10.330;2022-07-10T09:52:14;99793.34;;;17.86;58.90
24762;BME280;12865;51.934;10.330;2022-07-10T09:55:01;99776.34;;;18.25;58.03
24762;BME280;12865;51.934;10.330;2022-07-10T09:57:59;99780.19;;;18.30;56.59
24762;BME280;12865;51.934;10.330;2022-07-10T10:00:45;99785.78;;;18.68;56.13
24762;BME280;12865;51.934;10.330;2022-07-10T10:03:36;99779.56;;;18.59;56.11
24762;BME280;12865;51.934;10.330;2022-07-10T10:06:24;99787.38;;;18.46;55.08
24762;BME280;12865;51.934;10.330;2022-07-10T10:09:21;99780.09;;;18.55;55.34
24762;BME280;12865;51.934;10.330;2022-07-10T10:12:18;99776.03;;;18.59;55.06
24762;BME280;12865;51.934;10.330;2022-07-10T10:15:07;99774.44;;;18.72;55.52
24762;BME280;12865;51.934;10.330;2022-07-10T10:17:57;99757.38;;;18.72;55.08
24762;BME280;12865;51.934;10.330;2022-07-10T10:20:45;99767.53;;;18.93;54.14
24762;BME280;12865;51.934;10.330;2022-07-10T10:23:31;99761.66;;;19.12;53.94
24762;BME280;12865;51.934;10.330;2022-07-10T10:26:18;99769.34;;;18.77;53.77
24762;BME280;12865;51.934;10.330;2022-07-10T10:29:04;99767.66;;;18.76;55.36
24762;BME280;12865;51.934;10.330;2022-07-10T10:31:51;99772.16;;;18.61;56.17
24762;BME280;12865;51.934;10.330;2022-07-10T10:34:41;99758.66;;;18.53;57.11
24762;BME280;12865;51.934;10.330;2022-07-10T10:40:30;99753.59;;;18.81;56.71
24762;BME280;12865;51.934;10.330;2022-07-10T10:43:20;99756.53;;;19.17;56.63
24762;BME280;12865;51.934;10.330;2022-07-10T10:46:23;99769.22;;;19.16;59.47
24762;BME280;12865;51.934;10.330;2022-07-10T10:49:09;99773.47;;;19.34;59.82
24762;BME280;12865;51.934;10.330;2022-07-10T10:52:02;99766.44;;;19.25;57.93
24762;BME280;12865;51.934;10.330;2022-07-10T10:57:43;99766.63;;;19.00;57.73
24762;BME280;12865;51.934;10.330;2022-07-10T11:00:33;99767.66;;;18.76;56.54
24762;BME280;12865;51.934;10.330;2022-07-10T11:03:28;99764.84;;;18.93;57.32
24762;BME280;12865;51.934;10.330;2022-07-10T11:06:38;99771.31;;;19.29;56.58
24762;BME280;12865;51.934;10.330;2022-07-10T11:09:33;99776.72;;;19.29;56.29
24762;BME280;12865;51.934;10.330;2022-07-10T11:12:19;99756.66;;;19.01;56.23
24762;BME280;12865;51.934;10.330;2022-07-10T11:15:05;99772.09;;;18.69;58.60
24762;BME280;12865;51.934;10.330;2022-07-10T11:18:05;99772.22;;;18.37;59.37
24762;BME280;12865;51.934;10.330;2022-07-10T11:20:52;99777.72;;;18.21;59.91
24762;BME280;12865;51.934;10.330;2022-07-10T11:23:56;99766.59;;;18.55;58.39
24762;BME280;12865;51.934;10.330;2022-07-10T11:29:36;99755.91;;;19.52;52.47
24762;BME280;12865;51.934;10.330;2022-07-10T11:32:23;99757.31;;;19.63;52.88
24762;BME280;12865;51.934;10.330;2022-07-10T11:35:12;99750.44;;;19.60;53.35
24762;BME280;12865;51.934;10.330;2022-07-10T11:37:58;99746.97;;;19.67;53.38
24762;BME280;12865;51.934;10.330;2022-07-10T11:40:43;99744.47;;;19.94;52.01
24762;BME280;12865;51.934;10.330;2022-07-10T11:43:29;99741.28;;;19.91;52.22
24762;BME280;12865;51.934;10.330;2022-07-10T11:46:16;99752.31;;;19.89;53.45
24762;BME280;12865;51.934;10.330;2022-07-10T11:49:05;99757.03;;;19.58;54.45
24762;BME280;12865;51.934;10.330;2022-07-10T11:51:52;99764.25;;;19.80;54.49
24762;BME280;12865;51.934;10.330;2022-07-10T11:54:39;99749.72;;;19.44;54.16
24762;BME280;12865;51.934;10.330;2022-07-10T11:57:27;99753.78;;;19.63;53.69
24762;BME280;12865;51.934;10.330;2022-07-10T12:00:25;99754.47;;;19.94;52.42
24762;BME280;12865;51.934;10.330;2022-07-10T12:03:20;99747.63;;;20.13;53.07
24762;BME280;12865;51.934;10.330;2022-07-10T12:06:06;99754.28;;;20.10;52.33
24762;BME280;12865;51.934;10.330;2022-07-10T12:08:52;99742.69;;;20.16;53.55
24762;BME280;12865;51.934;10.330;2022-07-10T12:11:40;99734.66;;;19.93;53.39
24762;BME280;12865;51.934;10.330;2022-07-10T12:14:26;99752.59;;;19.94;54.10
24762;BME280;12865;51.934;10.330;2022-07-10T12:17:12;99749.03;;;19.65;54.20
24762;BME280;12865;51.934;10.330;2022-07-10T12:19:58;99746.44;;;20.00;53.79
24762;BME280;12865;51.934;10.330;2022-07-10T12:22:44;99752.41;;;20.11;53.45
24762;BME280;12865;51.934;10.330;2022-07-10T12:25:29;99746.16;;;19.43;53.97
24762;BME280;12865;51.934;10.330;2022-07-10T12:28:15;99745.56;;;19.71;54.37
24762;BME280;12865;51.934;10.330;2022-07-10T12:31:01;99755.84;;;19.75;54.04
24762;BME280;12865;51.934;10.330;2022-07-10T12:33:51;99769.72;;;19.57;54.93
24762;BME280;12865;51.934;10.330;2022-07-10T12:36:41;99764.81;;;19.38;54.72
24762;BME280;12865;51.934;10.330;2022-07-10T12:39:30;99752.53;;;19.13;56.43
24762;BME280;12865;51.934;10.330;2022-07-10T12:42:26;99754.56;;;19.34;56.81
24762;BME280;12865;51.934;10.330;2022-07-10T12:45:13;99760.91;;;19.41;55.39
24762;BME280;12865;51.934;10.330;2022-07-10T12:47:59;99756.97;;;19.43;55.90
24762;BME280;12865;51.934;10.330;2022-07-10T12:50:45;99753.03;;;19.31;56.32
24762;BME280;12865;51.934;10.330;2022-07-10T12:53:31;99761.25;;;19.38;56.67
24762;BME280;12865;51.934;10.330;2022-07-10T12:56:33;99762.47;;;19.35;55.82
24762;BME280;12865;51.934;10.330;2022-07-10T12:59:21;99755.53;;;19.18;56.61
24762;BME280;12865;51.934;10.330;2022-07-10T13:02:20;99750.28;;;19.39;55.42
24762;BME280;12865;51.934;10.330;2022-07-10T13:05:06;99754.94;;;19.45;56.19
24762;BME280;12865;51.934;10.330;2022-07-10T13:07:52;99758.84;;;19.80;56.57
24762;BME280;12865;51.934;10.330;2022-07-10T13:10:39;99758.84;;;19.05;57.72
24762;BME280;12865;51.934;10.330;2022-07-10T13:13:24;99769.56;;;19.36;57.14
24762;BME280;12865;51.934;10.330;2022-07-10T13:16:10;99759.75;;;19.35;57.50
24762;BME280;12865;51.934;10.330;2022-07-10T13:18:56;99763.13;;;19.75;57.12
24762;BME280;12865;51.934;10.330;2022-07-10T13:21:41;99769.31;;;19.83;57.31
24762;BME280;12865;51.934;10.330;2022-07-10T13:24:27;99784.00;;;19.51;57.16
24762;BME280;12865;51.934;10.330;2022-07-10T13:27:13;99783.50;;;19.25;58.61
24762;BME280;12865;51.934;10.330;2022-07-10T13:29:59;99773.84;;;19.08;59.29
24762;BME280;12865;51.934;10.330;2022-07-10T13:32:45;99777.84;;;19.57;58.84
24762;BME280;12865;51.934;10.330;2022-07-10T13:35:31;99772.44;;;19.72;58.17
24762;BME280;12865;51.934;10.330;2022-07-10T13:38:19;99776.72;;;19.29;58.99
24762;BME280;12865;51.934;10.330;2022-07-10T13:41:05;99781.88;;;19.39;58.92
24762;BME280;12865;51.934;10.330;2022-07-10T13:43:51;99787.06;;;19.03;60.31
24762;BME280;12865;51.934;10.330;2022-07-10T13:46:37;99778.78;;;19.04;59.64
24762;BME280;12865;51.934;10.330;2022-07-10T13:49:25;99773.66;;;18.87;60.98
24762;BME280;12865;51.934;10.330;2022-07-10T13:52:12;99775.81;;;18.68;61.67
24762;BME280;12865;51.934;10.330;2022-07-10T13:54:58;99779.47;;;18.75;61.16
24762;BME280;12865;51.934;10.330;2022-07-10T13:57:44;99774.63;;;18.94;61.24
24762;BME280;12865;51.934;10.330;2022-07-10T14:00:30;99782.91;;;19.15;61.36
24762;BME280;12865;51.934;10.330;2022-07-10T14:03:16;99781.03;;;18.93;62.00
24762;BME280;12865;51.934;10.330;2022-07-10T14:06:01;99776.75;;;18.44;63.78
24762;BME280;12865;51.934;10.330;2022-07-10T14:08:47;99778.50;;;18.68;63.45
24762;BME280;12865;51.934;10.330;2022-07-10T14:11:33;99781.94;;;18.54;64.36
24762;BME280;12865;51.934;10.330;2022-07-10T14:14:19;99785.38;;;18.40;64.68
24762;BME280;12865;51.934;10.330;2022-07-10T14:17:04;99787.97;;;18.25;64.90
24762;BME280;12865;51.934;10.330;2022-07-10T14:19:50;99780.06;;;18.16;66.89
24762;BME280;12865;51.934;10.330;2022-07-10T14:22:36;99778.94;;;18.49;66.76
24762;BME280;12865;51.934;10.330;2022-07-10T14:25:22;99781.25;;;18.21;66.66
24762;BME280;12865;51.934;10.330;2022-07-10T14:28:11;99787.72;;;18.04;67.42
24762;BME280;12865;51.934;10.330;2022-07-10T14:31:00;99780.19;;;17.91;68.14
24762;BME280;12865;51.934;10.330;2022-07-10T14:33:48;99782.88;;;17.91;68.14
24762;BME280;12865;51.934;10.330;2022-07-10T14:36:34;99784.22;;;17.87;68.45
24762;BME280;12865;51.934;10.330;2022-07-10T14:39:19;99783.25;;;17.72;69.31
24762;BME280;12865;51.934;10.330;2022-07-10T14:42:05;99790.69;;;17.62;70.41
24762;BME280;12865;51.934;10.330;2022-07-10T14:44:51;99787.47;;;17.66;70.27
24762;BME280;12865;51.934;10.330;2022-07-10T14:47:37;99794.38;;;17.53;71.37